Port Ontario, New York
Current Conditions -  °F | °C
As of 4:54 PM on Monday 22 Dec 2014 (Local Time) from KFZY Reporting Station
Broken Clouds Broken Clouds  
Wind Chill: 31°   Ceiling: 3800
Heat Index: 36°   Visibility: 10mi
Dew Point: 27°   Wind: 6mph
Humidity: 70%   Direction: 120°ESE
Pressure: 30.17"   Gusts: NA
Location:  43.5166°N, 76.1253°W
Report Text: KFZY 222154Z AUTO 12005KT 10SM BKN038 02/M03 A3017 RMK AO2 SLP221 T00221028
Loading
Personal Weather Stations






























Interactive Weather Map New forecast layout! Learn more

10-Day Weather Forecast

Advertisements
Track Severe Weather on mobile